createdAt,value
2023-04-01T00:00:10.946Z,12.02
2023-04-01T00:01:15.755Z,12.00
2023-04-01T00:02:17.324Z,12.09
2023-04-01T00:03:21.883Z,12.06
2023-04-01T00:04:24.732Z,11.99
2023-04-01T00:05:26.415Z,12.15
2023-04-01T00:06:29.767Z,11.89
2023-04-01T00:07:31.879Z,12.00
2023-04-01T00:08:34.886Z,12.03
2023-04-01T00:09:36.633Z,11.94
2023-04-01T00:10:39.112Z,12.07
2023-04-01T00:11:41.380Z,12.14
2023-04-01T00:12:44.099Z,11.91
2023-04-01T00:13:45.825Z,11.68
2023-04-01T00:14:48.272Z,11.57
2023-04-01T00:15:50.016Z,11.65
2023-04-01T00:16:53.393Z,11.69
2023-04-01T00:17:55.622Z,11.62
2023-04-01T00:19:00.992Z,11.76
2023-04-01T00:20:03.926Z,11.65
2023-04-01T00:21:06.956Z,11.65
2023-04-01T00:22:12.386Z,11.25
2023-04-01T00:23:14.936Z,11.11
2023-04-01T00:24:16.443Z,11.33
2023-04-01T00:25:19.493Z,11.26
2023-04-01T00:26:22.824Z,11.13
2023-04-01T00:27:25.776Z,11.23
2023-04-01T00:28:27.780Z,11.29
2023-04-01T00:29:31.527Z,11.10
2023-04-01T00:30:33.191Z,11.29
2023-04-01T00:31:35.806Z,10.83
2023-04-01T00:32:37.812Z,10.95
2023-04-01T00:33:40.864Z,11.15
2023-04-01T00:34:45.270Z,11.34
2023-04-01T00:35:48.502Z,11.40
2023-04-01T00:36:50.097Z,11.56
2023-04-01T00:37:52.729Z,11.40
2023-04-01T00:38:54.237Z,11.21
2023-04-01T00:39:57.238Z,10.95
2023-04-01T00:40:59.283Z,10.96
2023-04-01T00:42:03.315Z,11.04
2023-04-01T00:43:11.847Z,11.05
2023-04-01T00:44:20.076Z,10.84
2023-04-01T00:45:30.783Z,10.65
2023-04-01T00:46:33.554Z,10.73
2023-04-01T00:47:35.155Z,10.87
2023-04-01T00:48:40.084Z,10.93
2023-04-01T00:49:46.456Z,10.93
2023-04-01T00:50:54.019Z,10.84
2023-04-01T00:51:58.322Z,10.79
2023-04-01T00:53:04.768Z,10.70
2023-04-01T00:54:08.648Z,10.82
2023-04-01T00:55:13.464Z,10.83
2023-04-01T00:56:19.127Z,10.76
2023-04-01T00:57:26.531Z,10.73
2023-04-01T00:58:33.069Z,10.87
2023-04-01T00:59:36.769Z,11.07
2023-04-01T01:00:40.390Z,10.99
2023-04-01T01:01:42.166Z,11.01
2023-04-01T01:02:47.310Z,11.04
2023-04-01T01:03:48.915Z,10.64
2023-04-01T01:04:52.687Z,10.58
2023-04-01T01:06:09.169Z,10.71
2023-04-01T01:07:22.295Z,10.84
2023-04-01T01:08:37.168Z,11.00
2023-04-01T01:09:47.836Z,10.97
2023-04-01T01:10:51.072Z,10.89
2023-04-01T01:11:59.590Z,11.09
2023-04-01T01:13:07.021Z,11.28
2023-04-01T01:14:19.723Z,10.93
2023-04-01T01:15:25.744Z,11.00
2023-04-01T01:16:32.071Z,11.10
2023-04-01T01:17:45.396Z,11.29
2023-04-01T01:18:55.979Z,11.28
2023-04-01T01:20:33.980Z,11.47
2023-04-01T01:21:49.612Z,11.54
2023-04-01T01:23:02.427Z,11.29
2023-04-01T01:24:49.244Z,11.25
2023-04-01T01:26:00.040Z,11.06
2023-04-01T01:27:04.185Z,11.28
2023-04-01T01:28:28.052Z,11.24
2023-04-01T01:29:54.105Z,11.26
2023-04-01T01:31:04.094Z,11.14
2023-04-01T01:32:13.265Z,10.66
2023-04-01T01:33:41.522Z,10.60
2023-04-01T01:34:53.489Z,10.74
2023-04-01T01:36:02.128Z,10.88
2023-04-01T01:37:09.808Z,10.82
2023-04-01T01:38:16.436Z,10.62
2023-04-01T01:39:19.452Z,10.62
2023-04-01T01:40:22.498Z,10.42
2023-04-01T01:41:27.629Z,10.62
2023-04-01T01:42:33.470Z,10.63
2023-04-01T01:43:39.846Z,10.58
2023-04-01T01:44:46.196Z,10.57
2023-04-01T01:45:51.954Z,10.48
2023-04-01T01:46:54.528Z,10.67
2023-04-01T01:47:58.964Z,10.83
2023-04-01T01:49:02.383Z,11.04
2023-04-01T01:50:06.398Z,11.10
2023-04-01T01:51:10.656Z,10.90
2023-04-01T01:52:13.953Z,10.96
2023-04-01T01:53:16.781Z,11.10
2023-04-01T01:54:19.099Z,11.07
2023-04-01T01:55:28.234Z,10.96
2023-04-01T01:56:31.922Z,10.98
2023-04-01T01:57:37.774Z,11.11
2023-04-01T01:58:44.605Z,11.15
2023-04-01T01:59:48.461Z,11.20
2023-04-01T02:00:54.975Z,11.14
2023-04-01T02:01:58.132Z,11.31
2023-04-01T02:03:01.227Z,11.30
2023-04-01T02:04:04.008Z,11.43
2023-04-01T02:05:07.798Z,11.43
2023-04-01T02:06:12.911Z,11.60
2023-04-01T02:07:21.604Z,11.71
2023-04-01T02:08:27.601Z,11.61
2023-04-01T02:09:30.393Z,11.37
2023-04-01T02:10:37.479Z,11.50
2023-04-01T02:11:45.102Z,11.56
2023-04-01T02:12:48.895Z,11.70
2023-04-01T02:13:57.137Z,11.82
2023-04-01T02:15:03.885Z,11.85
2023-04-01T02:16:11.289Z,11.77
2023-04-01T02:17:17.496Z,11.65
2023-04-01T02:18:21.443Z,11.65
2023-04-01T02:19:27.602Z,11.46
2023-04-01T02:20:31.763Z,11.53
2023-04-01T02:21:36.565Z,11.50
2023-04-01T02:22:43.499Z,11.51
2023-04-01T02:23:47.754Z,11.48
2023-04-01T02:24:52.406Z,11.37
2023-04-01T02:25:54.380Z,11.21
2023-04-01T02:26:56.841Z,11.21
2023-04-01T02:28:01.006Z,11.27
2023-04-01T02:29:05.925Z,11.04
2023-04-01T02:30:08.870Z,11.19
2023-04-01T02:31:12.557Z,11.17
2023-04-01T02:32:15.525Z,10.97
2023-04-01T02:33:19.160Z,11.04
2023-04-01T02:34:21.365Z,11.17
2023-04-01T02:35:24.247Z,11.28
2023-04-01T02:36:26.110Z,11.22
2023-04-01T02:37:29.934Z,11.27
2023-04-01T02:38:31.571Z,10.93
2023-04-01T02:39:34.309Z,10.74
2023-04-01T02:40:47.084Z,10.92
2023-04-01T02:41:49.527Z,11.00
2023-04-01T02:42:51.718Z,11.08
2023-04-01T02:43:54.208Z,10.86
2023-04-01T02:44:55.741Z,10.96
2023-04-01T02:45:58.473Z,11.17
2023-04-01T02:47:00.092Z,11.01
2023-04-01T02:48:02.764Z,11.12
2023-04-01T02:49:05.689Z,11.19
2023-04-01T02:50:08.876Z,11.16
2023-04-01T02:51:11.423Z,11.08
2023-04-01T02:52:12.937Z,11.11
2023-04-01T02:53:17.277Z,11.29
2023-04-01T02:54:18.788Z,11.39
2023-04-01T02:55:21.303Z,11.17
2023-04-01T02:56:22.864Z,11.34
2023-04-01T02:57:25.913Z,10.95
2023-04-01T02:58:27.477Z,11.02
2023-04-01T02:59:29.913Z,11.09
2023-04-01T03:00:31.881Z,11.19
2023-04-01T03:01:34.537Z,11.24
2023-04-01T03:02:37.373Z,10.82
2023-04-01T03:03:40.340Z,10.99
2023-04-01T03:04:42.022Z,11.16
2023-04-01T03:05:44.546Z,11.24
2023-04-01T03:06:46.046Z,11.07
2023-04-01T03:07:49.014Z,11.13
2023-04-01T03:08:51.927Z,11.20
2023-04-01T03:09:57.748Z,11.26
2023-04-01T03:11:00.628Z,11.45
2023-04-01T03:12:03.225Z,11.58
2023-04-01T03:13:04.785Z,11.59
2023-04-01T03:14:07.949Z,11.47
2023-04-01T03:15:11.694Z,11.35
2023-04-01T03:16:14.704Z,11.07
2023-04-01T03:17:16.528Z,11.28
2023-04-01T03:18:19.265Z,11.23
2023-04-01T03:19:20.834Z,11.11
2023-04-01T03:20:23.395Z,11.09
2023-04-01T03:21:25.519Z,10.72
2023-04-01T03:22:27.976Z,10.69
2023-04-01T03:23:29.456Z,10.82
2023-04-01T03:24:33.268Z,10.95
2023-04-01T03:25:35.038Z,11.01
2023-04-01T03:26:37.861Z,11.02
2023-04-01T03:27:39.740Z,11.10
2023-04-01T03:28:42.291Z,11.12
2023-04-01T03:29:43.866Z,11.18
2023-04-01T03:30:46.470Z,10.84
2023-04-01T03:31:48.017Z,10.78
2023-04-01T03:32:50.525Z,11.00
2023-04-01T03:33:52.275Z,11.15
2023-04-01T03:34:54.768Z,11.18
2023-04-01T03:35:56.420Z,11.25
2023-04-01T03:36:59.783Z,11.39
2023-04-01T03:38:01.323Z,11.30
2023-04-01T03:39:04.859Z,11.10
2023-04-01T03:40:08.985Z,11.02
2023-04-01T03:41:14.562Z,10.72
2023-04-01T03:42:16.162Z,10.89
2023-04-01T03:43:18.810Z,10.89
2023-04-01T03:44:20.368Z,10.92
2023-04-01T03:45:23.096Z,11.13
2023-04-01T03:46:24.673Z,11.28
2023-04-01T03:47:27.223Z,11.32
2023-04-01T03:48:29.008Z,11.24
2023-04-01T03:49:33.073Z,10.91
2023-04-01T03:50:35.729Z,10.97
2023-04-01T03:51:38.221Z,11.13
2023-04-01T03:52:39.922Z,11.18
2023-04-01T03:53:42.432Z,11.23
2023-04-01T03:54:43.942Z,11.35
2023-04-01T03:55:47.765Z,11.45
2023-04-01T03:56:49.422Z,11.45
2023-04-01T03:57:51.939Z,11.35
2023-04-01T03:58:53.474Z,11.45
2023-04-01T03:59:55.955Z,11.45
2023-04-01T04:00:57.488Z,11.39
2023-04-01T04:02:00.211Z,11.32
2023-04-01T04:03:01.905Z,10.84
2023-04-01T04:04:04.562Z,10.86
2023-04-01T04:05:07.974Z,11.09
2023-04-01T04:06:13.118Z,11.15
2023-04-01T04:07:14.680Z,11.28
2023-04-01T04:08:17.440Z,11.27
2023-04-01T04:09:19.036Z,11.24
2023-04-01T04:10:23.314Z,11.17
2023-04-01T04:11:26.793Z,11.21
2023-04-01T04:12:29.284Z,11.01
2023-04-01T04:13:30.790Z,11.03
2023-04-01T04:14:33.451Z,11.12
2023-04-01T04:15:35.057Z,11.23
2023-04-01T04:16:38.411Z,11.02
2023-04-01T04:17:40.087Z,11.06
2023-04-01T04:18:42.820Z,11.23
2023-04-01T04:19:45.455Z,10.91
2023-04-01T04:20:49.342Z,10.95
2023-04-01T04:21:51.885Z,10.51
2023-04-01T04:22:53.442Z,10.53
2023-04-01T04:23:56.145Z,10.60
2023-04-01T04:24:57.710Z,10.33
2023-04-01T04:26:02.554Z,10.25
2023-04-01T04:27:06.941Z,10.25
2023-04-01T04:28:08.476Z,10.41
2023-04-01T04:29:10.916Z,10.65
2023-04-01T04:30:13.042Z,10.62
2023-04-01T04:31:20.792Z,10.59
2023-04-01T04:32:22.448Z,10.60
2023-04-01T04:33:26.117Z,10.81
2023-04-01T04:34:28.194Z,10.85
2023-04-01T04:35:31.180Z,10.92
2023-04-01T04:36:32.853Z,10.91
2023-04-01T04:37:35.391Z,10.80
2023-04-01T04:38:37.005Z,10.90
2023-04-01T04:39:39.518Z,10.70
2023-04-01T04:40:42.259Z,10.65
2023-04-01T04:41:44.805Z,10.79
2023-04-01T04:42:47.784Z,10.70
2023-04-01T04:43:52.772Z,10.90
2023-04-01T04:44:54.398Z,10.85
2023-04-01T04:45:57.015Z,10.61
2023-04-01T04:46:58.712Z,10.64
2023-04-01T04:48:01.354Z,10.72
2023-04-01T04:49:03.920Z,10.77
2023-04-01T04:50:06.902Z,10.85
2023-04-01T04:51:09.436Z,10.83
2023-04-01T04:52:11.020Z,10.81
2023-04-01T04:53:13.775Z,10.57
2023-04-01T04:54:15.424Z,10.59
2023-04-01T04:55:18.092Z,10.78
2023-04-01T04:56:20.476Z,10.61
2023-04-01T04:57:32.191Z,10.31
2023-04-01T04:58:35.313Z,10.47
2023-04-01T04:59:38.326Z,10.60
2023-04-01T05:00:39.847Z,10.79
2023-04-01T05:01:42.458Z,10.86
2023-04-01T05:02:44.669Z,10.98
2023-04-01T05:03:47.724Z,11.06
2023-04-01T05:04:49.309Z,10.99
2023-04-01T05:05:52.552Z,11.03
2023-04-01T05:06:54.205Z,11.00
2023-04-01T05:07:56.750Z,11.05
2023-04-01T05:08:58.819Z,11.23
2023-04-01T05:10:01.272Z,11.20
2023-04-01T05:11:03.650Z,11.38
2023-04-01T05:12:06.428Z,11.54
2023-04-01T05:13:08.313Z,11.51
2023-04-01T05:14:16.010Z,11.45
2023-04-01T05:15:18.026Z,11.35
2023-04-01T05:16:22.214Z,11.43
2023-04-01T05:17:23.818Z,11.51
2023-04-01T05:18:26.362Z,11.43
2023-04-01T05:19:27.952Z,11.39
2023-04-01T05:20:30.674Z,11.56
2023-04-01T05:21:32.621Z,11.63
2023-04-01T05:22:35.583Z,11.74
2023-04-01T05:23:37.362Z,11.93
2023-04-01T05:24:39.856Z,11.90
2023-04-01T05:25:41.450Z,11.89
2023-04-01T05:26:44.024Z,11.89
2023-04-01T05:27:45.779Z,11.77
2023-04-01T05:28:48.442Z,11.80
2023-04-01T05:29:51.487Z,11.75
2023-04-01T05:30:54.000Z,11.91
2023-04-01T05:31:55.720Z,11.95
2023-04-01T05:32:58.282Z,11.91
2023-04-01T05:33:59.836Z,11.80
2023-04-01T05:35:02.463Z,11.60
2023-04-01T05:36:08.885Z,11.46
2023-04-01T05:37:11.496Z,11.38
2023-04-01T05:38:13.115Z,11.36
2023-04-01T05:39:15.997Z,11.16
2023-04-01T05:40:17.940Z,11.07
2023-04-01T05:41:20.532Z,11.03
2023-04-01T05:42:22.233Z,11.17
2023-04-01T05:43:24.946Z,11.07
2023-04-01T05:44:26.584Z,11.19
2023-04-01T05:45:30.520Z,11.31
2023-04-01T05:46:32.294Z,11.56
2023-04-01T05:47:34.878Z,11.49
2023-04-01T05:48:38.079Z,11.55
2023-04-01T05:49:39.606Z,11.66
2023-04-01T05:50:43.407Z,11.50
2023-04-01T05:51:44.973Z,11.69
2023-04-01T05:52:47.952Z,11.68
2023-04-01T05:53:51.796Z,11.70
2023-04-01T05:54:54.368Z,11.67
2023-04-01T05:55:56.123Z,11.61
2023-04-01T05:56:58.677Z,11.63
2023-04-01T05:58:00.225Z,11.84
2023-04-01T05:59:02.725Z,11.71
2023-04-01T06:00:05.532Z,11.68
2023-04-01T06:01:15.790Z,11.84
2023-04-01T06:02:18.607Z,11.91
2023-04-01T06:03:21.281Z,11.65
2023-04-01T06:04:23.030Z,11.46
2023-04-01T06:05:29.235Z,11.47
2023-04-01T06:06:32.798Z,11.46
2023-04-01T06:07:35.339Z,11.47
2023-04-01T06:08:36.859Z,11.30
2023-04-01T06:09:39.417Z,11.31
2023-04-01T06:10:54.091Z,11.51
2023-04-01T06:12:21.846Z,11.65
2023-04-01T06:13:38.603Z,11.59
2023-04-01T06:14:52.891Z,11.73
2023-04-01T06:16:06.646Z,11.69
2023-04-01T06:17:25.992Z,11.62
2023-04-01T06:18:52.947Z,11.59
2023-04-01T06:20:03.601Z,11.87
2023-04-01T06:21:16.616Z,11.86
2023-04-01T06:22:34.018Z,11.58
2023-04-01T06:23:54.661Z,11.63
2023-04-01T06:25:14.611Z,11.52
2023-04-01T06:26:26.041Z,11.49
2023-04-01T06:27:42.397Z,11.49
2023-04-01T06:28:59.772Z,11.86
2023-04-01T06:30:25.196Z,11.75
2023-04-01T06:31:47.611Z,11.87
2023-04-01T06:33:04.217Z,12.04
2023-04-01T06:34:21.732Z,11.89
2023-04-01T06:35:47.829Z,11.80
2023-04-01T06:37:06.076Z,12.00
2023-04-01T06:38:31.274Z,12.24
2023-04-01T06:39:52.160Z,12.42
2023-04-01T06:41:18.244Z,12.67
2023-04-01T06:42:34.678Z,12.64
2023-04-01T06:43:49.416Z,12.51
2023-04-01T06:45:01.721Z,12.22
2023-04-01T06:46:11.924Z,12.38
2023-04-01T06:47:31.150Z,12.54
2023-04-01T06:48:46.367Z,12.20
2023-04-01T06:49:57.875Z,12.14
2023-04-01T06:51:05.733Z,12.16
2023-04-01T06:52:19.238Z,12.13
2023-04-01T06:53:29.645Z,12.36
2023-04-01T06:54:35.504Z,12.49
2023-04-01T06:55:42.280Z,12.29
2023-04-01T06:56:47.646Z,12.06
2023-04-01T06:57:52.069Z,12.20
2023-04-01T06:58:59.065Z,11.82
2023-04-01T07:00:04.331Z,11.75
2023-04-01T07:01:11.435Z,11.69
2023-04-01T07:02:24.919Z,11.99
2023-04-01T07:03:34.197Z,12.13
2023-04-01T07:04:42.322Z,11.80
2023-04-01T07:05:44.947Z,11.69
2023-04-01T07:06:52.324Z,11.48
2023-04-01T07:07:58.018Z,11.76
2023-04-01T07:09:06.055Z,11.99
2023-04-01T07:10:16.205Z,12.20
2023-04-01T07:11:27.532Z,12.35
2023-04-01T07:12:38.879Z,12.42
2023-04-01T07:13:47.179Z,12.57
2023-04-01T07:14:51.291Z,12.68
2023-04-01T07:16:05.332Z,12.54
2023-04-01T07:17:16.766Z,12.41
2023-04-01T07:18:23.038Z,12.08
2023-04-01T07:19:32.541Z,11.80
2023-04-01T07:20:39.011Z,12.14
2023-04-01T07:21:47.398Z,12.40
2023-04-01T07:22:52.575Z,12.51
2023-04-01T07:23:58.783Z,12.45
2023-04-01T07:25:06.901Z,12.41
2023-04-01T07:26:18.931Z,12.66
2023-04-01T07:27:20.853Z,12.93
2023-04-01T07:28:23.713Z,12.78
2023-04-01T07:29:27.461Z,12.49
2023-04-01T07:30:38.275Z,12.61
2023-04-01T07:31:52.001Z,12.48
2023-04-01T07:32:58.052Z,12.14
2023-04-01T07:34:07.233Z,12.28
2023-04-01T07:35:21.415Z,12.31
2023-04-01T07:36:29.872Z,12.14
2023-04-01T07:37:37.769Z,12.54
2023-04-01T07:38:53.270Z,12.77
2023-04-01T07:40:05.145Z,12.88
2023-04-01T07:41:19.262Z,13.00
2023-04-01T07:42:33.056Z,13.16
2023-04-01T07:43:52.220Z,12.52
2023-04-01T07:45:03.542Z,12.49
2023-04-01T07:46:19.427Z,12.37
2023-04-01T07:47:37.220Z,12.50
2023-04-01T07:48:45.494Z,12.57
2023-04-01T07:49:59.653Z,12.47
2023-04-01T07:51:06.170Z,12.57
2023-04-01T07:52:15.895Z,12.61
2023-04-01T07:53:26.433Z,12.99
2023-04-01T07:54:36.410Z,13.11
2023-04-01T07:55:45.402Z,12.96
2023-04-01T07:56:53.121Z,13.09
2023-04-01T07:58:09.861Z,13.11
2023-04-01T07:59:21.139Z,12.54
2023-04-01T08:00:29.601Z,12.21
2023-04-01T08:01:37.846Z,11.99
2023-04-01T08:02:54.975Z,12.17
2023-04-01T08:04:14.586Z,12.56
2023-04-01T08:05:24.359Z,13.08
2023-04-01T08:06:30.808Z,13.18
2023-04-01T08:07:42.547Z,12.96
2023-04-01T08:08:58.368Z,12.82
2023-04-01T08:10:06.074Z,12.43
2023-04-01T08:11:23.010Z,12.53
2023-04-01T08:12:39.761Z,12.80
2023-04-01T08:13:47.672Z,12.91
2023-04-01T08:14:58.003Z,12.82
2023-04-01T08:16:09.724Z,12.49
2023-04-01T08:17:20.833Z,12.17
2023-04-01T08:18:34.561Z,12.04
2023-04-01T08:19:52.899Z,12.24
2023-04-01T08:20:59.874Z,12.60
2023-04-01T08:22:08.526Z,12.88
2023-04-01T08:23:18.254Z,12.77
2023-04-01T08:24:37.077Z,12.87
2023-04-01T08:25:52.541Z,13.16
2023-04-01T08:26:59.351Z,13.38
2023-04-01T08:28:08.001Z,12.84
2023-04-01T08:29:16.061Z,12.48
2023-04-01T08:30:20.999Z,12.81
2023-04-01T08:31:32.451Z,13.17
2023-04-01T08:32:38.155Z,13.46
2023-04-01T08:33:46.459Z,13.75
2023-04-01T08:35:03.122Z,13.59
2023-04-01T08:36:09.204Z,13.50
2023-04-01T08:37:15.401Z,13.66
2023-04-01T08:38:38.511Z,13.85
2023-04-01T08:39:47.176Z,14.01
2023-04-01T08:40:59.831Z,14.32
2023-04-01T08:42:19.929Z,13.81
2023-04-01T08:43:41.301Z,13.66
2023-04-01T08:45:14.421Z,13.30
2023-04-01T08:46:29.447Z,13.45
2023-04-01T08:47:45.990Z,13.15
2023-04-01T08:49:09.768Z,13.12
2023-04-01T08:50:34.323Z,13.24
2023-04-01T08:52:12.626Z,12.94
2023-04-01T08:53:21.750Z,13.20
2023-04-01T08:54:56.888Z,13.13
2023-04-01T08:56:11.327Z,13.27
2023-04-01T08:57:22.946Z,13.52
2023-04-01T08:59:01.334Z,13.42
2023-04-01T09:00:16.508Z,13.65
2023-04-01T09:01:28.218Z,13.83
2023-04-01T09:02:53.281Z,13.88
2023-04-01T09:04:16.695Z,14.01
2023-04-01T09:05:58.725Z,14.05
2023-04-01T09:07:12.864Z,13.81
2023-04-01T09:08:33.047Z,13.65
2023-04-01T09:10:26.728Z,13.87
2023-04-01T09:11:42.789Z,13.94
2023-04-01T09:13:10.804Z,14.05
2023-04-01T09:14:40.204Z,13.79
2023-04-01T09:16:08.010Z,13.68
2023-04-01T09:17:41.203Z,13.52
2023-04-01T09:19:10.023Z,13.47
2023-04-01T09:20:25.571Z,13.69
2023-04-01T09:21:42.056Z,13.40
2023-04-01T09:22:55.993Z,13.48
2023-04-01T09:24:32.905Z,13.48
2023-04-01T09:26:08.246Z,13.39
2023-04-01T09:27:27.232Z,13.50
2023-04-01T09:28:34.440Z,13.56
2023-04-01T09:29:53.446Z,13.70
2023-04-01T09:31:19.326Z,13.53
2023-04-01T09:33:02.703Z,13.75
2023-04-01T09:34:25.714Z,13.96
2023-04-01T09:35:41.901Z,14.37
2023-04-01T09:36:46.851Z,13.87
2023-04-01T09:37:56.868Z,14.18
2023-04-01T09:39:01.396Z,14.28
2023-04-01T09:40:18.016Z,14.71
2023-04-01T09:41:32.024Z,14.43
2023-04-01T09:42:44.015Z,14.56
2023-04-01T09:44:02.546Z,14.74
2023-04-01T09:45:11.969Z,14.93
2023-04-01T09:46:24.768Z,14.53
2023-04-01T09:47:44.924Z,14.38
2023-04-01T09:49:05.829Z,14.77
2023-04-01T09:50:24.031Z,14.08
2023-04-01T09:51:34.635Z,13.78
2023-04-01T09:52:46.634Z,13.78
2023-04-01T09:54:02.219Z,13.80
2023-04-01T09:55:26.295Z,14.00
2023-04-01T09:56:59.886Z,14.06
2023-04-01T09:58:43.721Z,13.73
2023-04-01T10:00:03.175Z,13.52
2023-04-01T10:01:44.686Z,13.39
2023-04-01T10:03:26.317Z,13.52
2023-04-01T10:04:58.749Z,13.62
2023-04-01T10:06:37.642Z,14.04
2023-04-01T10:08:04.966Z,14.35
2023-04-01T10:09:43.278Z,14.38
2023-04-01T10:11:22.046Z,14.46
2023-04-01T10:12:57.178Z,14.54
2023-04-01T10:14:28.464Z,13.56
2023-04-01T10:16:05.034Z,13.49
2023-04-01T10:17:40.604Z,13.55
2023-04-01T10:19:27.259Z,13.34
2023-04-01T10:21:01.879Z,13.34
2023-04-01T10:22:25.780Z,13.26
2023-04-01T10:23:54.037Z,13.41
2023-04-01T10:25:20.539Z,13.58
2023-04-01T10:26:45.679Z,13.69
2023-04-01T10:28:16.754Z,13.90
2023-04-01T10:29:46.139Z,13.41
2023-04-01T10:31:37.296Z,13.38
2023-04-01T10:33:26.316Z,13.54
2023-04-01T10:35:13.543Z,13.59
2023-04-01T10:36:44.246Z,13.54
2023-04-01T10:38:26.763Z,13.41
2023-04-01T10:40:07.722Z,13.09
2023-04-01T10:41:30.984Z,13.27
2023-04-01T10:43:21.260Z,13.17
2023-04-01T10:44:58.873Z,13.42
2023-04-01T10:46:34.830Z,13.74
2023-04-01T10:48:10.949Z,13.45
2023-04-01T10:49:42.355Z,13.41
2023-04-01T10:51:07.348Z,13.14
2023-04-01T10:52:34.310Z,13.26
2023-04-01T10:53:44.897Z,13.02
2023-04-01T10:54:58.581Z,12.88
2023-04-01T10:56:34.299Z,12.74
2023-04-01T10:57:58.215Z,13.34
2023-04-01T10:59:22.512Z,13.34
2023-04-01T11:00:57.273Z,13.31
2023-04-01T11:02:47.733Z,13.15
2023-04-01T11:04:23.664Z,13.35
2023-04-01T11:06:08.016Z,13.52
2023-04-01T11:08:05.329Z,13.30
2023-04-01T11:09:46.787Z,13.84
2023-04-01T11:11:21.043Z,13.63
2023-04-01T11:12:50.551Z,13.89
2023-04-01T11:14:44.464Z,14.13
2023-04-01T11:16:29.184Z,13.98
2023-04-01T11:17:55.864Z,13.55
2023-04-01T11:19:41.105Z,14.02
2023-04-01T11:21:05.429Z,13.86
2023-04-01T11:22:34.868Z,13.90
2023-04-01T11:24:03.972Z,13.71
2023-04-01T11:25:42.534Z,13.94
2023-04-01T11:26:53.917Z,14.07
2023-04-01T11:28:20.313Z,13.44
2023-04-01T11:29:56.669Z,13.32
2023-04-01T11:31:26.486Z,13.53
2023-04-01T11:32:43.723Z,13.60
2023-04-01T11:33:52.992Z,13.46
2023-04-01T11:35:24.936Z,13.66
2023-04-01T11:36:41.189Z,13.61
2023-04-01T11:37:52.348Z,13.22
2023-04-01T11:39:13.401Z,13.22
2023-04-01T11:40:25.921Z,13.06
2023-04-01T11:41:39.516Z,13.16
2023-04-01T11:42:47.378Z,13.22
2023-04-01T11:44:06.410Z,13.31
2023-04-01T11:45:21.869Z,13.32
2023-04-01T11:46:31.034Z,13.26
2023-04-01T11:47:50.018Z,13.40
2023-04-01T11:49:02.704Z,13.63
2023-04-01T11:50:19.819Z,13.16
2023-04-01T11:51:38.864Z,12.98
2023-04-01T11:52:56.450Z,13.06
2023-04-01T11:54:06.382Z,13.35
2023-04-01T11:55:19.748Z,13.64
2023-04-01T11:56:44.463Z,13.62
2023-04-01T11:58:07.709Z,13.84
2023-04-01T11:59:41.557Z,14.17
2023-04-01T12:01:11.515Z,14.22
2023-04-01T12:02:22.883Z,14.28
2023-04-01T12:03:42.249Z,14.02
2023-04-01T12:05:00.161Z,13.86
2023-04-01T12:06:10.365Z,13.73
2023-04-01T12:07:22.002Z,13.39
2023-04-01T12:08:39.380Z,13.69
2023-04-01T12:09:50.597Z,13.57
2023-04-01T12:11:03.183Z,13.11
2023-04-01T12:12:15.382Z,13.28
2023-04-01T12:13:31.794Z,13.26
2023-04-01T12:14:40.271Z,13.34
2023-04-01T12:16:00.121Z,13.20
2023-04-01T12:17:11.724Z,13.24
2023-04-01T12:18:19.813Z,13.60
2023-04-01T12:19:33.738Z,13.58
2023-04-01T12:20:45.751Z,13.40
2023-04-01T12:22:01.772Z,13.80
2023-04-01T12:23:17.848Z,14.17
2023-04-01T12:24:37.315Z,13.63
2023-04-01T12:26:02.980Z,13.71
2023-04-01T12:27:20.990Z,13.70
2023-04-01T12:28:30.414Z,13.67
2023-04-01T12:30:00.130Z,14.03
2023-04-01T12:31:21.264Z,14.28
2023-04-01T12:32:31.887Z,14.42
2023-04-01T12:33:49.884Z,14.52
2023-04-01T12:35:03.354Z,14.52
2023-04-01T12:36:20.195Z,14.20
2023-04-01T12:37:28.058Z,14.69
2023-04-01T12:38:41.887Z,14.97
2023-04-01T12:40:03.963Z,14.71
2023-04-01T12:41:14.004Z,14.30
2023-04-01T12:42:31.222Z,14.24
2023-04-01T12:44:02.914Z,14.63
2023-04-01T12:45:25.721Z,14.19
2023-04-01T12:46:40.249Z,14.67
2023-04-01T12:48:09.953Z,14.63
2023-04-01T12:49:36.491Z,15.20
2023-04-01T12:50:57.263Z,15.40
2023-04-01T12:52:12.548Z,16.17
2023-04-01T12:53:40.641Z,16.20
2023-04-01T12:55:26.009Z,16.11
2023-04-01T12:56:47.038Z,14.83
2023-04-01T12:58:19.515Z,14.42
2023-04-01T12:59:38.174Z,14.53
2023-04-01T13:00:52.143Z,14.35
2023-04-01T13:02:03.410Z,13.99
2023-04-01T13:03:37.903Z,14.12
2023-04-01T13:04:53.106Z,14.51
2023-04-01T13:06:25.479Z,14.58
2023-04-01T13:07:44.626Z,14.69
2023-04-01T13:08:55.736Z,14.86
2023-04-01T13:10:09.998Z,15.34
2023-04-01T13:11:21.629Z,14.59
2023-04-01T13:12:51.074Z,14.09
2023-04-01T13:14:34.031Z,14.67
2023-04-01T13:15:44.291Z,14.68
2023-04-01T13:16:53.606Z,15.00
2023-04-01T13:18:07.540Z,14.79
2023-04-01T13:19:14.743Z,14.34
2023-04-01T13:20:27.344Z,13.95
2023-04-01T13:21:40.899Z,13.83
2023-04-01T13:22:58.973Z,13.89
2023-04-01T13:24:08.879Z,13.95
2023-04-01T13:25:22.467Z,14.28
2023-04-01T13:26:30.951Z,14.30
2023-04-01T13:28:02.388Z,14.13
2023-04-01T13:29:11.914Z,13.88
2023-04-01T13:30:26.853Z,13.78
2023-04-01T13:31:47.421Z,14.06
2023-04-01T13:32:58.949Z,14.53
2023-04-01T13:34:19.810Z,14.49
2023-04-01T13:35:43.714Z,14.33
2023-04-01T13:36:58.630Z,14.55
2023-04-01T13:38:16.979Z,14.62
2023-04-01T13:39:31.692Z,14.44
2023-04-01T13:40:55.711Z,14.20
2023-04-01T13:42:18.843Z,14.29
2023-04-01T13:43:27.406Z,14.09
2023-04-01T13:44:34.845Z,14.19
2023-04-01T13:45:51.525Z,14.37
2023-04-01T13:47:13.322Z,14.04
2023-04-01T13:48:48.930Z,14.01
2023-04-01T13:50:47.507Z,13.60
2023-04-01T13:52:06.530Z,13.59
2023-04-01T13:53:33.988Z,13.66
2023-04-01T13:54:54.216Z,13.56
2023-04-01T13:56:04.691Z,13.63
2023-04-01T13:57:25.111Z,13.75
2023-04-01T13:59:01.232Z,13.98
2023-04-01T14:00:25.802Z,14.36
2023-04-01T14:01:36.908Z,13.92
2023-04-01T14:02:55.869Z,13.55
2023-04-01T14:04:17.965Z,13.36
2023-04-01T14:05:47.420Z,13.72
2023-04-01T14:07:02.975Z,13.99
2023-04-01T14:08:14.947Z,14.08
2023-04-01T14:09:37.464Z,14.31
2023-04-01T14:10:45.071Z,14.58
2023-04-01T14:11:53.977Z,14.32
2023-04-01T14:13:03.717Z,13.93
2023-04-01T14:14:18.287Z,13.53
2023-04-01T14:15:34.965Z,13.24
2023-04-01T14:17:16.867Z,14.01
2023-04-01T14:18:34.573Z,14.73
2023-04-01T14:19:54.684Z,14.87
2023-04-01T14:21:12.023Z,15.33
2023-04-01T14:22:26.588Z,15.14
2023-04-01T14:23:47.768Z,14.86
2023-04-01T14:25:19.500Z,14.41
2023-04-01T14:26:59.199Z,14.38
2023-04-01T14:28:12.801Z,14.79
2023-04-01T14:29:25.333Z,14.62
2023-04-01T14:32:30.827Z,14.19
2023-04-01T14:33:43.579Z,14.25
2023-04-01T14:34:59.278Z,14.25
2023-04-01T14:36:29.521Z,14.33
2023-04-01T14:37:59.242Z,14.02
2023-04-01T14:39:18.415Z,13.39
2023-04-01T14:40:29.675Z,13.25
2023-04-01T14:41:43.847Z,13.54
2023-04-01T14:43:16.772Z,14.15
2023-04-01T14:44:31.951Z,14.37
2023-04-01T14:45:49.965Z,14.26
2023-04-01T14:47:12.645Z,13.99
2023-04-01T14:48:30.779Z,13.82
2023-04-01T14:49:37.328Z,13.79
2023-04-01T14:50:46.277Z,13.94
2023-04-01T14:51:49.446Z,13.77
2023-04-01T14:52:59.779Z,14.00
2023-04-01T14:54:08.110Z,13.99
2023-04-01T14:55:28.482Z,13.69
2023-04-01T14:56:38.895Z,13.50
2023-04-01T14:57:41.396Z,13.52
2023-04-01T14:58:46.489Z,13.81
2023-04-01T14:59:51.439Z,14.18
2023-04-01T15:01:08.437Z,14.35
2023-04-01T15:02:30.791Z,14.33
2023-04-01T15:03:39.252Z,14.46
2023-04-01T15:04:54.652Z,14.43
2023-04-01T15:06:09.811Z,14.56
2023-04-01T15:07:30.011Z,14.75
2023-04-01T15:08:46.046Z,14.88
2023-04-01T15:09:57.743Z,14.59
2023-04-01T15:11:19.696Z,14.61
2023-04-01T15:12:30.592Z,14.70
2023-04-01T15:13:52.537Z,14.47
2023-04-01T15:15:18.372Z,14.24
2023-04-01T15:16:27.851Z,13.65
2023-04-01T15:17:49.526Z,13.05
2023-04-01T15:19:03.699Z,12.61
2023-04-01T15:20:33.764Z,12.21
2023-04-01T15:22:04.196Z,12.07
2023-04-01T15:23:20.785Z,12.06
2023-04-01T15:24:26.605Z,12.44
2023-04-01T15:26:01.145Z,12.44
2023-04-01T15:27:23.972Z,11.99
2023-04-01T15:28:33.635Z,12.24
2023-04-01T15:29:54.529Z,12.50
2023-04-01T15:31:05.113Z,12.75
2023-04-01T15:32:18.314Z,12.95